Highlands Peak, California Weather observations

Data are for observation ending at time listed.
 Day   Time    Ave.   Ave.  Ave.  Vector   Max.   Stn.    Total    Solar   Ave.  
  of    of     Air    Rel.  Wind   Wind    Wind   Baro.  Precip.   Rad.    Soil  
Year   Day     Temp.  Hum.  Speed  Dir.    Gust   Pres.                    Temp. 
2014   (PST)    F      %     mph   deg.    mph     mb.     in.     W/m2     F   
------------------------------------------------------------------------------
 293    2:50   51.8    93    7.0    89     11.5   927.1    0.00       0    66.9
 293    3:00   53.9    78    9.2    82     11.8   927.0    0.00       0    66.5
 293    3:10   58.3    66    7.0    79      9.8   927.0    0.00       0    66.6
 293    3:20   59.8    60    5.5    62      8.3   927.0    0.00       0    66.5
 293    3:30   59.4    60    6.1    60      7.7   927.1    0.00       0    66.4
 293    3:40   58.5    61    6.1    71      7.9   927.1    0.00       0    66.3
 293    3:50   57.1    65    7.0    87      9.3   927.0    0.00       0    66.3
 293    4:00   58.6    59    5.8    75      9.5   927.0    0.00       0    66.0
 293    4:10   53.8    82    4.1   287      6.2   927.2    0.00       0    65.9
 293    4:20   52.0    91    2.4   297      6.2   927.3    0.00       0    65.9
 293    4:30   51.4    93    4.9    67      7.5   927.4    0.00       0    65.9
 293    4:40   51.1    94    4.4   353      7.4   927.4    0.00       0    65.9
 293    4:50   52.6    87    4.2   336      7.4   927.5    0.00       0    65.8
 293    5:00   53.4    83    3.7    18      4.8   927.5    0.00       0    65.8
 293    5:10   53.7    83    3.3   333      5.0   927.6    0.00       0    65.8
 293    5:20   53.4    84    3.0   317      5.0   927.7    0.00       0    65.7
 293    5:30   53.5    81    2.7    46      3.7   927.8    0.00       0    65.6
 293    5:40   53.9    84    2.8   304      4.2   927.8    0.00       0    65.4
 293    5:50   53.7    83    3.6   328      5.7   927.8    0.00       0    65.4
 293    6:00   54.6    76    2.8     2      4.3   927.8    0.00       0    65.2
 293    6:10   53.6    83    4.0   284      6.4   927.8    0.00       1    65.0
 293    6:20   52.6    87    4.8   341      8.2   927.8    0.00       3    65.0
 293    6:30   52.4    82    5.9    70      7.2   927.9    0.00       6    64.9
 293    6:40   53.3    79    5.4    55      7.0   928.0    0.00      10    64.7
 293    6:50   54.8    76    4.5    20      6.6   928.1    0.00      13    64.7
 293    7:00   55.1    77    4.4   328      6.9   928.1    0.00      16    64.6
 293    7:10   54.9    77    5.0   317      6.6   928.2    0.00     117    64.6
 293    7:20   54.9    78    4.3   317      5.3   928.3    0.00     189    64.5
 293    7:30   55.2    79    3.7   305      5.1   928.4    0.00     225    64.4
 293    7:40   55.0    81    4.3   298      7.5   928.5    0.00     261    64.2
 293    7:50   55.5    80    2.0   346      3.1   928.6    0.00     296    64.1
 293    8:00   58.3    69    4.8   104      6.3   928.6    0.00     331    64.2
 293    8:10   60.0    60    6.2    46     10.2   928.7    0.00     365    64.1
 293    8:20   56.8    76    3.4   294      8.0   928.9    0.00     398    63.9
 293    8:30   58.0    72    1.6   309      3.5   929.1    0.00     429    64.0
 293    8:40   57.6    74    2.5   270      4.3   929.1    0.00     459    63.9
 293    8:50   57.1    75    3.9   270      5.7   929.0    0.00     489    63.8
 293    9:00   57.7    73    4.1   272      5.4   929.1    0.00     516    63.9
 293    9:10   58.5    70    2.3   277      3.9   929.2    0.00     543    63.9
 293    9:20   59.2    68    3.1   268      5.2   929.3    0.00     568    63.9
 293    9:30   59.6    64    2.6   275      4.5   929.3    0.00     593    64.0
 293    9:40   59.7    68    3.7   262      5.3   929.4    0.00     616    64.1
 293    9:50   59.2    71    3.8   261      6.5   929.6    0.00     636    64.3
 293   10:00   59.0    71    5.0   270     10.5   929.7    0.00     655    64.5
 293   10:10   57.8    76    7.7   276     11.2   929.7    0.00     672    64.7
 293   10:20   57.2    80    7.4   270     10.4   929.8    0.00     688    65.0
 293   10:30   57.1    81    3.8   270      8.9   929.8    0.00     708    65.2
 293   10:40   59.3    75    2.1    14      6.6   929.7    0.00     715    65.4
 293   10:50   60.5    71    4.5   285      8.2   929.6    0.00     727    65.7
 293   11:00   60.3    72    7.7   276     12.9   929.6    0.00     736    66.0
 293   11:10   60.8    70   10.1   290     16.4   929.5    0.00     744    66.3
 293   11:20   60.8    69   10.4   286     15.8   929.5    0.00     707    66.5
 293   11:30   60.3    72    8.3   276     12.2   929.5    0.00     765    66.8
 293   11:40   59.5    76    8.8   282     13.4   929.5    0.00     812    67.1
 293   11:50   58.5    80    6.6   274     11.9   929.6    0.00     544    67.3
 293   12:00   58.6    81    5.0   279     10.7   929.5    0.00     711    67.6
 293   12:10   60.7    74    3.1    30     10.4   929.3    0.00     774    67.8
 293   12:20   62.0    71    6.0   272     10.7   929.2    0.00     751    68.1
 293   12:30   60.2    78    8.0   267     12.4   929.2    0.00     746    68.4
 293   12:40   59.9    78    7.5   267     12.7   929.3    0.00     669    68.7
 293   12:50   59.0    80    8.4   275     14.1   929.3    0.00     582    69.0
 293   13:00   59.7    80    9.8   275     15.5   929.1    0.00     713    69.3
 293   13:10   59.5    82   10.6   277     15.1   929.1    0.00     315    69.6
 293   13:20   58.2    86    8.6   271     12.1   929.0    0.00     360    69.9
 293   13:30   58.9    83    9.4   273     14.5   928.9    0.00     374    70.1
 293   13:40   58.5    86    9.4   277     15.0   928.9    0.00     297    70.3
 293   13:50   57.4    90    9.2   275     12.5   928.9    0.00     222    70.5
 293   14:00   56.6    94    7.2   279     13.2   928.9    0.00     203    70.7
 293   14:10   56.6    95    6.5   292     11.1   928.8    0.00     262    70.8
 293   14:20   56.9    96    5.9   284      8.3   928.8    0.00     341    71.0
 293   14:30   57.3    96    5.8   282      8.3   928.9    0.00     340    71.1
 293   14:40   56.9    95    6.9   284     11.0   928.9    0.00     211    71.2
 293   14:50   55.8    96    6.9   295     11.5   929.0    0.00     155    71.4
 293   15:00   55.6    96    7.4   294     10.7   929.0    0.00     111    71.5
 293   15:10   55.5    96    7.9   293     11.3   929.0    0.00      91    71.5
 293   15:20   55.2    97    6.7   296     11.0   929.0    0.00     105    71.6
 293   15:30   55.4    97    5.9   310      9.6   928.9    0.00     114    71.6
 293   15:40   55.7    97    7.9   298     11.2   928.9    0.00     170    71.7
 293   15:50   56.0    97    7.7   297     11.8   928.9    0.00     164    71.7
 293   16:00   56.0    96    8.8   300     12.7   928.9    0.00     107    71.7
 293   16:10   56.2    96    6.8   302     11.5   928.9    0.00     111    71.7
 293   16:20   56.6    94    6.4   290     10.2   928.8    0.00      78    71.7
 293   16:30   57.0    92    6.5   277     10.7   928.8    0.00     134    71.7
 293   16:40   58.6    86    6.7   277     10.0   928.7    0.00     179    71.7
 293   16:50   59.3    81    4.5   290      8.3   928.7    0.00     129    71.7
 293   17:00   58.3    81    5.8   278      9.1   928.7    0.00      93    71.7
 293   17:10   57.5    82    3.9   276      5.6   928.6    0.00      64    71.7
 293   17:20   57.1    83    3.6   286      4.9   928.6    0.00      38    71.7
 293   17:30   56.5    84    2.7   336      4.1   928.7    0.00      12    71.6
 293   17:40   56.5    87    4.3   349      5.7   928.6    0.00       2    71.6
 293   17:50   56.8    87    5.3   314      6.4   928.6    0.00       0    71.5
 293   18:00   57.2    86    4.7   339      5.8   928.5    0.00       0    71.5
 293   18:10   57.1    85    3.5    57      7.2   928.6    0.00       0    71.4
 293   18:20   55.1    89    7.1   279      9.9   928.8    0.00       0    71.3
 293   18:30   53.6    92    4.8   305      9.6   929.1    0.00       0    71.2
 293   18:40   53.6    92    4.1    30      6.1   929.2    0.00       0    71.2
 293   18:50   54.2    92    5.0    44      6.8   929.2    0.00       0    71.0
 293   19:00   56.0    86    4.5   353      8.0   929.1    0.00       0    71.0
 293   19:10   56.7    82    5.7   328      8.3   929.1    0.00       0    70.7
 293   19:20   55.7    84    3.7   300      5.7   929.1    0.00       0    70.7
 293   19:30   54.0    89    3.8   308      5.6   929.2    0.00       0    70.6
 293   19:40   53.4    90    4.2   326      6.4   929.1    0.00       0    70.4
 293   19:50   55.0    84    5.0   340      7.4   929.1    0.00       0    70.3
 293   20:00   54.8    85    5.0    53      6.9   929.1    0.00       0    70.2
 293   20:10   55.4    82    5.1    46      7.1   929.1    0.00       0    69.9
 293   20:20   55.9    79    4.5    20      6.6   929.2    0.00       0    69.9
 293   20:30   56.1    77    4.4    51      5.6   929.2    0.00       0    69.7
 293   20:40   56.0    75    4.8    89      7.8   929.2    0.00       0    69.5
 293   20:50   56.3    76    1.5    82      2.4   929.3    0.00       0    69.4
 293   21:00   55.6    76    3.4   111      5.5   929.4    0.00       0    69.0
 293   21:10   55.9    73    2.6    22      4.0   929.5    0.00       0    68.8
 293   21:20   56.0    76    2.8   142      4.6   929.6    0.00       0    68.6
 293   21:30   55.5    80    3.4   175      4.4   929.8    0.00       0    68.5
 293   21:40   55.6    83    5.2   147      7.1   929.7    0.00       0    67.6
 293   21:50   55.5    80    4.6   155      6.7   929.9    0.00       0    67.0
 293   22:00   55.7    76    3.8   116      5.8   930.0    0.00       0    67.0
 293   22:10   55.3    71    3.7   114      5.0   930.0    0.00       0    67.3
 293   22:20   55.4    73    3.4   154      5.9   930.1    0.00       0    67.0
 293   22:30   53.9    78    2.7   289      5.9   930.3    0.00       0    67.3
 293   22:40   53.7    76    2.7    92      5.3   930.2    0.00       0    67.3
 293   22:50   54.1    69    5.2    86      6.6   930.2    0.00       0    67.0
 293   23:00   54.9    67    4.5   100      6.4   930.1    0.00       0    67.0
 293   23:10   55.7    63    2.8   118      5.6   930.2    0.00       0    66.7
 293   23:20   55.0    68    3.0   204      4.3   930.2    0.00       0    66.5
 293   23:30   54.9    67    1.1   270      3.2   930.2    0.00       0    66.6
 293   23:40   54.2    77    3.4   194      4.3   930.2    0.00       0    66.5
 293   23:50   53.6    80    2.5   192      3.9   930.2    0.00       0    66.4
 294    0:00   53.9    80    2.2   149      3.9   930.2    0.00       0    66.2
 294    0:10   54.0    75    3.6   119      4.7   930.2    0.00       0    65.6
 294    0:20   55.1    42    3.0    58      4.1   930.3    0.00       0    65.9
 294    0:30   55.5    35    3.7    83      6.7   930.1    0.00       0    65.9
 294    0:40   55.6    29    3.7    89      7.4   930.0    0.00       0    65.7
 294    0:50   55.8    27    4.2    95      8.8   929.9    0.00       0    65.1
 294    1:00   56.7    26    3.2    74      5.5   930.1    0.00       0    65.1
 294    1:10   56.4    26    4.7    72      7.7   930.2    0.00       0    65.2
 294    1:20   55.8    32    4.7   129      7.4   930.0    0.00       0    64.8
 294    1:30   54.0    50    2.8   148      5.1   930.1    0.00       0    64.4
 294    1:40   55.7    35    1.9    65      4.1   930.1    0.00       0    64.5
 294    1:50   55.0    39    2.6   100      9.6   930.0    0.00       0    64.4
 294    2:00   55.3    28    5.9    66     10.3   930.0    0.00       0    64.3
 294    2:10   56.0    26    6.9    54     12.1   930.0    0.00       0    64.2
 294    2:20   56.5    25    5.1    50     10.4   929.9    0.00       0    64.0
 294    2:30   56.1    26    4.6    59     11.0   929.9    0.00       0    63.7
 294    2:40   55.9    27    3.7    28      9.0   930.0    0.00       0    63.5

Return to Highlands Peak graphs page.


Western Regional Climate Center,wrcc@dri.edu